Time;durP1;ratioP1;P1;durP2;ratioP2;P2;SDS_P1;SDS_P2;PMS_P1;PMS_P2;Temp;Humidity;BMP_temperature;BMP_pressure;BME280_temperature;BME280_humidity;BME280_pressure;Samples;Min_cycle;Max_cycle;Signal;HPM_P1;HPM_P2
2023/12/19 00:01:25;;;;;;;44.37;20.97;;;6.80;99.90;;;;;;7273066;19;20197;-79
2023/12/19 00:03:52;;;;;;;43.50;21.10;;;6.80;99.90;;;;;;7302392;19;20185;-79
2023/12/19 00:06:18;;;;;;;41.43;21.60;;;6.70;99.90;;;;;;7300269;19;20253;-79
2023/12/19 00:08:43;;;;;;;48.47;21.13;;;6.70;99.90;;;;;;7300873;19;20664;-78
2023/12/19 00:11:09;;;;;;;45.20;22.30;;;6.80;99.90;;;;;;7319362;19;20197;-79
2023/12/19 00:13:35;;;;;;;42.87;22.30;;;6.80;99.90;;;;;;7281544;19;20189;-78
2023/12/19 00:16:03;;;;;;;47.83;22.50;;;7.00;99.90;;;;;;7299111;19;20827;-79
2023/12/19 00:18:30;;;;;;;53.00;23.43;;;7.00;99.90;;;;;;7341164;19;20238;-79
2023/12/19 00:20:56;;;;;;;46.73;22.90;;;6.90;99.90;;;;;;7278237;19;20197;-79
2023/12/19 00:23:23;;;;;;;46.47;22.70;;;6.80;99.90;;;;;;7280377;19;20192;-79
2023/12/19 00:25:49;;;;;;;45.17;22.90;;;6.70;99.90;;;;;;7278918;19;20187;-79
2023/12/19 00:28:14;;;;;;;44.80;22.73;;;6.80;99.90;;;;;;7265105;19;20250;-78
2023/12/19 00:30:40;;;;;;;47.50;22.83;;;6.80;99.90;;;;;;7303261;19;20191;-78
2023/12/19 00:33:06;;;;;;;47.60;22.90;;;6.80;99.90;;;;;;7300874;19;20617;-79
2023/12/19 00:35:33;;;;;;;43.50;22.73;;;6.70;99.90;;;;;;7278747;19;20188;-79
2023/12/19 00:38:02;;;;;;;50.80;23.53;;;6.80;99.90;;;;;;7277400;19;20215;-79
2023/12/19 00:40:27;;;;;;;45.63;23.83;;;6.90;99.90;;;;;;7279418;19;20186;-79
2023/12/19 00:42:53;;;;;;;47.07;22.63;;;6.90;99.90;;;;;;7282595;19;20204;-79
2023/12/19 00:45:19;;;;;;;47.30;23.50;;;7.10;99.90;;;;;;7278687;19;20592;-79
2023/12/19 00:47:45;;;;;;;40.97;21.20;;;7.00;99.90;;;;;;7278274;19;20548;-79
2023/12/19 00:50:15;;;;;;;42.93;22.57;;;7.00;99.90;;;;;;7281806;19;20188;-79
2023/12/19 00:52:42;;;;;;;41.60;21.90;;;7.00;99.90;;;;;;7278024;19;20624;-79
2023/12/19 00:55:08;;;;;;;46.33;22.60;;;7.00;99.90;;;;;;7301754;19;20188;-79
2023/12/19 00:57:34;;;;;;;48.90;22.43;;;7.00;99.90;;;;;;7277257;19;20190;-79
2023/12/19 00:59:59;;;;;;;45.70;23.93;;;7.10;99.90;;;;;;7279699;19;20185;-79
2023/12/19 01:02:27;;;;;;;43.97;23.07;;;7.00;99.90;;;;;;7281477;19;20195;-79
2023/12/19 01:04:56;;;;;;;43.07;22.40;;;6.90;99.90;;;;;;7268326;19;20248;-79
2023/12/19 01:07:22;;;;;;;43.13;24.00;;;7.00;99.90;;;;;;7280987;19;20530;-79
2023/12/19 01:09:48;;;;;;;43.97;22.57;;;7.00;99.90;;;;;;7282444;19;20495;-79
2023/12/19 01:12:14;;;;;;;43.77;22.97;;;7.10;99.90;;;;;;7281309;19;20231;-80
2023/12/19 01:14:40;;;;;;;45.07;23.07;;;7.00;99.90;;;;;;7283424;19;20192;-79
2023/12/19 01:17:06;;;;;;;45.43;23.47;;;7.00;99.90;;;;;;7303243;19;20188;-80
2023/12/19 01:19:32;;;;;;;50.00;23.80;;;7.00;99.90;;;;;;7273230;19;20264;-79
2023/12/19 01:21:58;;;;;;;47.30;24.07;;;7.00;99.90;;;;;;7281430;19;20222;-80
2023/12/19 01:24:24;;;;;;;45.20;23.73;;;7.00;99.90;;;;;;7280255;19;20214;-79
2023/12/19 01:26:51;;;;;;;44.73;23.37;;;7.00;99.90;;;;;;7277478;19;20204;-79
2023/12/19 01:29:18;;;;;;;46.57;24.83;;;7.10;99.90;;;;;;7280870;19;20189;-79
2023/12/19 01:31:43;;;;;;;45.50;23.57;;;7.10;99.90;;;;;;7280515;19;20241;-79
2023/12/19 01:34:11;;;;;;;45.23;22.90;;;7.10;99.90;;;;;;7278945;19;20185;-79
2023/12/19 01:36:39;;;;;;;47.43;23.87;;;7.10;99.90;;;;;;7302398;19;20192;-80
2023/12/19 01:39:05;;;;;;;47.80;23.47;;;6.90;99.90;;;;;;7279378;19;20214;-80
2023/12/19 01:41:31;;;;;;;44.73;23.27;;;7.00;99.90;;;;;;7283163;19;20187;-81
2023/12/19 01:44:00;;;;;;;44.27;23.07;;;7.00;99.90;;;;;;7282733;19;20197;-79
2023/12/19 01:46:26;;;;;;;47.90;23.60;;;7.00;99.90;;;;;;7282576;19;20193;-78
2023/12/19 01:48:53;;;;;;;48.37;24.17;;;7.00;99.90;;;;;;7280920;19;20516;-78
2023/12/19 01:51:19;;;;;;;47.17;22.53;;;7.00;99.90;;;;;;7279780;19;20214;-78
2023/12/19 01:53:47;;;;;;;42.87;23.67;;;6.90;99.90;;;;;;7281173;19;20184;-79
2023/12/19 01:56:15;;;;;;;49.53;23.80;;;6.90;99.90;;;;;;7279376;19;20185;-79
2023/12/19 01:58:42;;;;;;;47.00;23.73;;;6.90;99.90;;;;;;7279426;19;20181;-79
2023/12/19 02:01:08;;;;;;;49.27;23.87;;;6.90;99.90;;;;;;7292858;19;20193;-79
2023/12/19 02:03:35;;;;;;;47.53;23.07;;;7.00;99.90;;;;;;7301051;19;20192;-79
2023/12/19 02:06:02;;;;;;;50.47;23.80;;;7.00;99.90;;;;;;7278291;19;20207;-79
2023/12/19 02:08:28;;;;;;;51.33;24.60;;;6.80;99.90;;;;;;7280519;19;20189;-79
2023/12/19 02:10:54;;;;;;;55.60;24.93;;;6.80;99.90;;;;;;7280612;19;20861;-79
2023/12/19 02:13:21;;;;;;;50.43;24.40;;;6.80;99.90;;;;;;7280309;19;20192;-78
2023/12/19 02:15:48;;;;;;;52.67;24.37;;;6.90;99.90;;;;;;7283556;19;20228;-79
2023/12/19 02:18:21;;;;;;;52.07;24.83;;;6.90;99.90;;;;;;7284610;19;20185;-79
2023/12/19 02:20:47;;;;;;;48.60;24.17;;;6.90;99.90;;;;;;7286468;19;20200;-78
2023/12/19 02:23:14;;;;;;;55.57;24.00;;;7.00;99.90;;;;;;7286783;19;20196;-79
2023/12/19 02:25:41;;;;;;;53.67;24.53;;;7.00;99.90;;;;;;7284506;19;20191;-79
2023/12/19 02:28:07;;;;;;;52.30;24.33;;;7.00;99.90;;;;;;7309393;19;20717;-79
2023/12/19 02:30:37;;;;;;;51.17;23.33;;;7.00;99.90;;;;;;7285384;19;20207;-78
2023/12/19 02:33:03;;;;;;;53.20;25.27;;;7.00;99.90;;;;;;7286592;19;20233;-79
2023/12/19 02:35:30;;;;;;;49.83;24.13;;;7.10;99.90;;;;;;7287341;19;20188;-79
2023/12/19 02:37:56;;;;;;;48.90;23.80;;;7.10;99.90;;;;;;7286289;19;20534;-79
2023/12/19 02:40:23;;;;;;;51.63;23.90;;;7.20;99.90;;;;;;7287089;19;20263;-79
2023/12/19 02:42:49;;;;;;;52.57;23.67;;;7.30;99.90;;;;;;7285554;19;20700;-78
2023/12/19 02:45:15;;;;;;;50.20;22.93;;;7.30;99.90;;;;;;7287410;19;20223;-78
2023/12/19 02:47:41;;;;;;;52.10;23.47;;;7.40;99.90;;;;;;7286533;19;20273;-79
2023/12/19 02:50:07;;;;;;;49.63;23.73;;;7.40;99.90;;;;;;7308575;19;20193;-78
2023/12/19 02:52:33;;;;;;;46.67;22.70;;;7.40;99.90;;;;;;7300305;19;20222;-78
2023/12/19 02:54:59;;;;;;;49.10;21.93;;;7.30;99.90;;;;;;7285491;19;20186;-79
2023/12/19 02:57:24;;;;;;;46.73;21.83;;;7.10;99.90;;;;;;7283677;19;20188;-79
2023/12/19 02:59:50;;;;;;;43.13;22.10;;;7.10;99.90;;;;;;7285528;19;20184;-79
2023/12/19 03:02:16;;;;;;;44.70;21.67;;;7.10;99.90;;;;;;7286009;19;20291;-79
2023/12/19 03:04:42;;;;;;;42.97;21.93;;;7.10;99.90;;;;;;7283419;19;20298;-79
2023/12/19 03:07:10;;;;;;;43.80;21.73;;;7.00;99.90;;;;;;7297730;19;20674;-79
2023/12/19 03:09:36;;;;;;;46.80;21.20;;;7.00;99.90;;;;;;7307290;19;20189;-79
2023/12/19 03:12:08;;;;;;;42.50;21.93;;;7.10;99.90;;;;;;7288940;19;20196;-79
2023/12/19 03:14:37;;;;;;;42.13;20.63;;;7.10;99.90;;;;;;7285136;19;20188;-80
2023/12/19 03:17:07;;;;;;;46.20;21.10;;;7.00;99.90;;;;;;7287357;19;20187;-79
2023/12/19 03:19:32;;;;;;;43.23;21.57;;;7.00;99.90;;;;;;7282195;19;20227;-78
2023/12/19 03:21:59;;;;;;;44.53;20.30;;;7.00;99.90;;;;;;7285384;19;20189;-79
2023/12/19 03:24:24;;;;;;;40.83;19.63;;;7.10;99.90;;;;;;7282967;19;20196;-79
2023/12/19 03:26:50;;;;;;;44.67;19.70;;;7.10;99.90;;;;;;7283272;19;20671;-78
2023/12/19 03:29:16;;;;;;;40.70;20.33;;;7.00;99.90;;;;;;7282641;19;20197;-78
2023/12/19 03:31:45;;;;;;;40.73;19.93;;;7.10;99.90;;;;;;7284560;19;20182;-78
2023/12/19 03:34:10;;;;;;;38.73;18.87;;;7.20;99.90;;;;;;7283427;19;20507;-78
2023/12/19 03:36:36;;;;;;;40.90;19.80;;;7.10;99.90;;;;;;7306582;19;20185;-79
2023/12/19 03:39:02;;;;;;;44.40;19.87;;;7.20;99.90;;;;;;7281535;19;20215;-80
2023/12/19 03:41:28;;;;;;;42.47;19.73;;;7.20;99.90;;;;;;7282004;19;20318;-79
2023/12/19 03:43:53;;;;;;;42.20;19.07;;;7.20;99.90;;;;;;7282180;19;20192;-79
2023/12/19 03:46:19;;;;;;;40.07;19.93;;;7.20;99.90;;;;;;7281637;19;20204;-79
2023/12/19 03:48:45;;;;;;;40.23;20.53;;;7.20;99.90;;;;;;7283277;19;20316;-79
2023/12/19 03:51:14;;;;;;;36.90;19.90;;;7.20;99.90;;;;;;7281379;19;20609;-79
2023/12/19 03:53:40;;;;;;;39.27;20.20;;;7.20;99.90;;;;;;7283766;19;20288;-79
2023/12/19 03:56:06;;;;;;;37.63;19.30;;;7.10;99.90;;;;;;7305026;19;20191;-79
2023/12/19 03:58:32;;;;;;;40.47;19.97;;;7.20;99.90;;;;;;7279847;19;20199;-79
2023/12/19 04:01:00;;;;;;;35.90;19.93;;;7.30;99.90;;;;;;7284153;19;20982;-79
2023/12/19 04:03:26;;;;;;;35.23;19.43;;;7.40;99.90;;;;;;7284801;19;20200;-79
2023/12/19 04:05:52;;;;;;;36.53;18.90;;;7.40;99.90;;;;;;7283466;19;20652;-79
2023/12/19 04:08:18;;;;;;;37.93;19.37;;;7.40;99.90;;;;;;7284110;19;20205;-79
2023/12/19 04:10:44;;;;;;;40.53;20.03;;;7.40;99.90;;;;;;7282062;19;20603;-79
2023/12/19 04:13:09;;;;;;;37.30;18.30;;;7.30;99.90;;;;;;7286783;19;20621;-79
2023/12/19 04:15:35;;;;;;;37.47;18.73;;;7.30;99.90;;;;;;7302841;19;20197;-79
2023/12/19 04:18:01;;;;;;;36.17;18.40;;;7.30;99.90;;;;;;7283305;19;20703;-79
2023/12/19 04:20:27;;;;;;;37.07;18.40;;;7.30;99.90;;;;;;7283435;19;20195;-79
2023/12/19 04:22:52;;;;;;;33.90;17.80;;;7.30;99.90;;;;;;7284970;19;20198;-80
2023/12/19 04:25:18;;;;;;;30.97;17.97;;;7.30;99.90;;;;;;7283768;19;20219;-79
2023/12/19 04:27:44;;;;;;;35.90;18.07;;;7.30;99.90;;;;;;7284005;19;20181;-79
2023/12/19 04:30:10;;;;;;;29.77;16.83;;;7.40;99.90;;;;;;7285848;19;20184;-79
2023/12/19 04:32:36;;;;;;;31.70;16.77;;;7.40;99.90;;;;;;7305007;19;20546;-79
2023/12/19 04:35:03;;;;;;;30.90;16.73;;;7.40;99.90;;;;;;7284633;19;20191;-79
2023/12/19 04:37:28;;;;;;;30.80;15.67;;;7.40;99.90;;;;;;7282442;19;20222;-80
2023/12/19 04:39:54;;;;;;;34.87;16.63;;;7.40;99.90;;;;;;7282148;19;20188;-79
2023/12/19 04:42:20;;;;;;;30.30;17.03;;;7.50;99.90;;;;;;7285426;19;20177;-79
2023/12/19 04:44:47;;;;;;;28.20;15.67;;;7.40;99.90;;;;;;7282000;19;20205;-79
2023/12/19 04:47:13;;;;;;;29.57;15.83;;;7.50;99.90;;;;;;7284267;19;20253;-79
2023/12/19 04:49:39;;;;;;;32.17;16.00;;;7.50;99.90;;;;;;7295835;19;20197;-78
2023/12/19 04:52:05;;;;;;;28.13;15.63;;;7.40;99.90;;;;;;7303411;19;21050;-78
2023/12/19 04:54:32;;;;;;;31.93;16.60;;;7.40;99.90;;;;;;7284056;19;20277;-78
2023/12/19 04:56:58;;;;;;;26.03;14.80;;;7.40;99.90;;;;;;7282823;19;21385;-78
2023/12/19 04:59:24;;;;;;;30.97;14.83;;;7.50;99.90;;;;;;7281164;19;20652;-78
2023/12/19 05:01:50;;;;;;;25.17;14.00;;;7.50;99.90;;;;;;7281104;19;20184;-79
2023/12/19 05:04:16;;;;;;;27.97;13.97;;;7.50;99.90;;;;;;7280736;19;20185;-78
2023/12/19 05:06:42;;;;;;;27.40;14.47;;;7.50;99.90;;;;;;7282618;19;20223;-78
2023/12/19 05:09:08;;;;;;;26.40;14.40;;;7.50;99.90;;;;;;7306473;19;20753;-79
2023/12/19 05:11:34;;;;;;;26.80;14.07;;;7.60;99.90;;;;;;7294415;19;20667;-79
2023/12/19 05:14:01;;;;;;;25.93;13.43;;;7.50;99.90;;;;;;7283494;19;20654;-77
2023/12/19 05:16:27;;;;;;;27.57;14.23;;;7.50;99.90;;;;;;7281285;19;20252;-78
2023/12/19 05:18:53;;;;;;;25.40;13.23;;;7.50;99.90;;;;;;7280670;19;20523;-78
2023/12/19 05:21:22;;;;;;;28.33;13.97;;;7.50;99.90;;;;;;7280809;19;20202;-78
2023/12/19 05:23:48;;;;;;;24.70;13.60;;;7.50;99.90;;;;;;7277545;19;20766;-79
2023/12/19 05:26:14;;;;;;;28.23;13.83;;;7.40;99.90;;;;;;7280149;19;20181;-78
2023/12/19 05:28:40;;;;;;;28.30;12.73;;;7.50;99.90;;;;;;7287202;19;20188;-79
2023/12/19 05:31:08;;;;;;;24.90;14.67;;;7.50;99.90;;;;;;7303713;19;20188;-79
2023/12/19 05:33:34;;;;;;;29.03;15.03;;;7.40;99.90;;;;;;7281835;19;20277;-79
2023/12/19 05:36:00;;;;;;;25.10;13.53;;;7.40;99.90;;;;;;7280170;19;20186;-79
2023/12/19 05:38:26;;;;;;;24.40;13.43;;;7.40;99.90;;;;;;7279060;19;20213;-78
2023/12/19 05:40:56;;;;;;;31.10;14.67;;;7.40;99.90;;;;;;7282118;19;20189;-78
2023/12/19 05:43:23;;;;;;;28.37;13.80;;;7.40;99.90;;;;;;7280627;19;20248;-79
2023/12/19 05:45:50;;;;;;;26.70;13.57;;;7.40;99.90;;;;;;7281207;19;20189;-79
2023/12/19 05:48:16;;;;;;;26.43;14.47;;;7.40;99.90;;;;;;7278113;19;20191;-79
2023/12/19 05:50:42;;;;;;;25.77;13.53;;;7.40;99.90;;;;;;7281949;19;20181;-80
2023/12/19 05:53:08;;;;;;;27.43;13.67;;;7.50;99.90;;;;;;7309768;19;20682;-79
2023/12/19 05:55:33;;;;;;;27.73;14.50;;;7.60;99.90;;;;;;7289738;19;20184;-79
2023/12/19 05:57:59;;;;;;;26.13;13.43;;;7.60;99.90;;;;;;7289455;19;20182;-79
2023/12/19 06:00:25;;;;;;;25.23;13.77;;;7.80;99.90;;;;;;7289999;19;20254;-79
2023/12/19 06:02:51;;;;;;;25.97;13.67;;;7.70;99.90;;;;;;7289996;19;20217;-80
2023/12/19 06:05:17;;;;;;;24.60;13.50;;;7.70;99.90;;;;;;7289723;19;20674;-79
2023/12/19 06:07:43;;;;;;;24.87;13.93;;;7.80;99.90;;;;;;7289009;19;20194;-81
2023/12/19 06:10:12;;;;;;;23.67;12.53;;;7.70;99.90;;;;;;7305748;19;20191;-78
2023/12/19 06:12:39;;;;;;;24.83;13.67;;;7.70;99.90;;;;;;7315169;19;20678;-80
2023/12/19 06:15:08;;;;;;;28.43;14.03;;;7.60;99.90;;;;;;7313322;19;20181;-79
2023/12/19 06:17:35;;;;;;;26.07;13.60;;;7.70;99.90;;;;;;7291121;19;20191;-78
2023/12/19 06:20:02;;;;;;;28.80;14.00;;;7.70;99.90;;;;;;7288868;19;20190;-79
2023/12/19 06:22:27;;;;;;;28.93;15.13;;;7.70;99.90;;;;;;7295881;19;20192;-79
2023/12/19 06:24:53;;;;;;;24.53;13.33;;;7.80;99.90;;;;;;7288309;19;20192;-79
2023/12/19 06:27:19;;;;;;;28.63;14.93;;;7.80;99.90;;;;;;7288151;19;20196;-81
2023/12/19 06:29:46;;;;;;;27.97;14.30;;;7.70;99.90;;;;;;7287879;19;20893;-81
2023/12/19 06:32:11;;;;;;;27.13;14.47;;;7.70;99.90;;;;;;7289731;19;20182;-81
2023/12/19 06:34:37;;;;;;;27.07;13.77;;;7.60;99.90;;;;;;7313807;19;20177;-81
2023/12/19 06:37:03;;;;;;;27.93;13.37;;;7.60;99.90;;;;;;7295276;19;20201;-81
2023/12/19 06:39:29;;;;;;;29.00;15.07;;;7.60;99.90;;;;;;7297005;19;20248;-81
2023/12/19 06:41:55;;;;;;;32.17;16.85;;;7.70;99.90;;;;;;7284840;19;20814;-85
2023/12/19 06:44:22;;;;;;;28.03;14.20;;;7.70;99.90;;;;;;7285280;19;20986;-81
2023/12/19 06:46:49;;;;;;;26.73;14.20;;;7.80;99.90;;;;;;7287886;19;20197;-81
2023/12/19 06:49:18;;;;;;;29.37;14.33;;;7.90;99.90;;;;;;7287811;19;20588;-79
2023/12/19 06:51:44;;;;;;;28.07;14.53;;;7.80;99.90;;;;;;7288861;19;20213;-84
2023/12/19 06:54:12;;;;;;;27.03;14.20;;;7.80;99.90;;;;;;7287571;19;20185;-83
2023/12/19 06:56:38;;;;;;;28.73;14.30;;;7.60;99.90;;;;;;7309839;19;20195;-83
2023/12/19 06:59:06;;;;;;;29.07;14.40;;;7.50;99.90;;;;;;7288517;19;20686;-83
2023/12/19 07:01:32;;;;;;;26.97;14.27;;;7.50;99.90;;;;;;7288299;19;20210;-82
2023/12/19 07:03:57;;;;;;;26.37;14.07;;;7.50;99.90;;;;;;7288520;19;20185;-83
2023/12/19 07:06:25;;;;;;;27.70;13.83;;;7.50;99.90;;;;;;7285857;19;20195;-83
2023/12/19 07:08:51;;;;;;;26.90;14.17;;;7.50;99.90;;;;;;7288952;19;20185;-83
2023/12/19 07:11:18;;;;;;;27.47;14.50;;;7.60;99.90;;;;;;7285005;19;20274;-83
2023/12/19 07:13:44;;;;;;;29.37;14.17;;;7.60;99.90;;;;;;7287368;19;20196;-84
2023/12/19 07:16:14;;;;;;;28.47;14.70;;;7.60;99.90;;;;;;7295820;19;20282;-83
2023/12/19 07:18:42;;;;;;;26.87;14.83;;;7.70;99.90;;;;;;7291675;19;20192;-82
2023/12/19 07:21:16;;;;;;;29.50;16.03;;;7.70;99.90;;;;;;7308145;19;20181;-83
2023/12/19 07:23:42;;;;;;;27.60;14.30;;;7.80;99.90;;;;;;7265887;19;20192;-83
2023/12/19 07:26:26;;;;;;;27.27;14.43;;;7.80;99.90;;;;;;7309024;19;20194;-83
2023/12/19 07:28:54;;;;;;;26.63;13.90;;;7.70;99.90;;;;;;7186309;19;2004599;-83
2023/12/19 07:31:21;;;;;;;27.87;14.70;;;7.70;99.90;;;;;;7285837;19;20185;-83
2023/12/19 07:33:47;;;;;;;26.40;14.10;;;7.70;99.90;;;;;;7287060;19;20199;-84
2023/12/19 07:36:12;;;;;;;27.60;14.23;;;7.70;99.90;;;;;;7292722;19;20186;-83
2023/12/19 07:38:38;;;;;;;27.13;14.23;;;7.70;99.90;;;;;;7318314;19;20192;-83
2023/12/19 07:41:04;;;;;;;25.37;14.03;;;7.70;99.90;;;;;;7286318;19;20200;-83
2023/12/19 07:43:31;;;;;;;26.43;14.27;;;7.60;99.90;;;;;;7289838;19;20185;-83
2023/12/19 07:45:57;;;;;;;29.10;13.90;;;7.60;99.90;;;;;;7287622;19;20566;-83
2023/12/19 07:48:23;;;;;;;27.83;14.43;;;7.70;99.90;;;;;;7282517;19;20365;-83
2023/12/19 07:50:50;;;;;;;26.23;14.20;;;7.80;99.90;;;;;;7279406;19;20249;-83
2023/12/19 07:53:15;;;;;;;28.27;14.83;;;7.90;99.90;;;;;;7282410;19;20192;-83
2023/12/19 07:55:41;;;;;;;26.97;13.83;;;7.90;99.90;;;;;;7281945;19;20177;-83
2023/12/19 07:58:07;;;;;;;25.73;13.43;;;7.90;99.90;;;;;;7301620;19;20182;-83
2023/12/19 08:00:33;;;;;;;24.53;12.70;;;8.00;99.90;;;;;;7282080;19;20684;-83
2023/12/19 08:02:59;;;;;;;25.63;13.23;;;7.80;99.90;;;;;;7282453;19;20191;-83
2023/12/19 08:05:25;;;;;;;24.40;12.83;;;7.80;99.90;;;;;;7282016;19;20190;-83
2023/12/19 08:07:50;;;;;;;25.77;13.83;;;7.80;99.90;;;;;;7282160;19;20189;-82
2023/12/19 08:10:16;;;;;;;26.70;13.07;;;7.90;99.90;;;;;;7284146;19;20189;-84
2023/12/19 08:12:42;;;;;;;29.63;15.07;;;7.90;99.90;;;;;;7282637;19;20256;-83
2023/12/19 08:15:10;;;;;;;30.47;13.70;;;8.00;99.90;;;;;;7308856;19;20287;-83
2023/12/19 08:17:37;;;;;;;24.70;13.27;;;8.10;99.90;;;;;;7288678;19;20189;-83
2023/12/19 08:20:03;;;;;;;27.67;13.37;;;8.20;99.90;;;;;;7287948;19;20234;-83
2023/12/19 08:22:29;;;;;;;25.57;11.93;;;8.10;99.90;;;;;;7288028;19;20272;-83
2023/12/19 08:24:56;;;;;;;26.83;12.63;;;8.20;99.90;;;;;;7287051;19;20193;-83
2023/12/19 08:27:26;;;;;;;24.87;12.00;;;8.20;99.90;;;;;;7287352;19;20256;-83
2023/12/19 08:29:51;;;;;;;24.27;13.20;;;8.20;99.90;;;;;;7288017;19;20188;-83
2023/12/19 08:32:17;;;;;;;27.33;13.70;;;8.30;99.90;;;;;;7288557;19;20222;-83
2023/12/19 08:34:43;;;;;;;22.27;11.97;;;8.50;99.90;;;;;;7288317;19;20195;-83
2023/12/19 08:37:09;;;;;;;24.03;12.03;;;8.50;99.90;;;;;;7315129;19;20181;-82
2023/12/19 08:39:35;;;;;;;25.43;12.10;;;8.50;99.90;;;;;;7314197;19;20311;-83
2023/12/19 08:42:00;;;;;;;25.60;12.33;;;8.50;99.90;;;;;;7300702;19;20196;-83
2023/12/19 08:44:29;;;;;;;23.90;11.57;;;8.50;99.90;;;;;;7296846;19;21084;-83
2023/12/19 08:46:55;;;;;;;25.50;12.67;;;8.40;99.90;;;;;;7297588;19;20190;-82
2023/12/19 08:49:21;;;;;;;25.80;12.13;;;8.50;99.90;;;;;;7298505;19;20563;-83
2023/12/19 08:51:47;;;;;;;23.00;11.93;;;8.50;99.90;;;;;;7287352;19;20185;-82
2023/12/19 08:54:13;;;;;;;22.47;11.93;;;8.50;99.90;;;;;;7305148;19;20188;-83
2023/12/19 08:56:39;;;;;;;24.83;12.10;;;8.60;99.90;;;;;;7316731;19;20214;-83
2023/12/19 08:59:05;;;;;;;24.80;11.47;;;8.60;99.90;;;;;;7316363;19;20193;-83
2023/12/19 09:01:32;;;;;;;22.60;11.80;;;8.60;99.90;;;;;;7292565;19;20191;-82
2023/12/19 09:04:00;;;;;;;24.63;11.57;;;8.70;99.90;;;;;;7290357;19;20189;-82
2023/12/19 09:06:29;;;;;;;24.13;12.00;;;8.80;99.90;;;;;;7302278;19;20188;-82
2023/12/19 09:08:55;;;;;;;25.70;11.67;;;8.80;99.90;;;;;;7305416;19;20185;-83
2023/12/19 09:11:21;;;;;;;21.93;12.07;;;8.70;99.90;;;;;;7293202;19;20194;-83
2023/12/19 09:13:47;;;;;;;25.80;12.37;;;8.70;99.90;;;;;;7289102;19;20225;-83
2023/12/19 09:16:13;;;;;;;23.47;12.40;;;8.60;99.90;;;;;;7295924;19;20202;-83
2023/12/19 09:18:38;;;;;;;24.10;12.33;;;8.50;99.90;;;;;;7318000;19;20253;-84
2023/12/19 09:21:05;;;;;;;28.00;13.53;;;8.40;99.90;;;;;;7296480;19;20180;-84
2023/12/19 09:23:31;;;;;;;23.47;13.07;;;8.50;99.90;;;;;;7291788;19;20201;-83
2023/12/19 09:25:57;;;;;;;25.47;13.23;;;8.40;99.90;;;;;;7289071;19;20188;-83
2023/12/19 09:28:23;;;;;;;23.33;12.23;;;8.40;99.90;;;;;;7299699;19;20189;-83
2023/12/19 09:30:50;;;;;;;26.90;13.43;;;8.30;99.90;;;;;;7295541;19;20199;-83
2023/12/19 09:33:17;;;;;;;28.20;14.07;;;8.30;99.90;;;;;;7289275;19;20197;-83
2023/12/19 09:35:43;;;;;;;29.57;14.67;;;8.20;99.90;;;;;;7302194;19;20221;-83
2023/12/19 09:38:08;;;;;;;26.30;13.47;;;8.20;99.90;;;;;;7323285;19;20182;-82
2023/12/19 09:40:34;;;;;;;28.23;14.70;;;8.30;99.90;;;;;;7306296;19;20262;-83
2023/12/19 09:43:00;;;;;;;27.90;14.80;;;8.30;99.90;;;;;;7295206;19;20800;-82
2023/12/19 09:45:26;;;;;;;27.03;14.70;;;8.30;99.90;;;;;;7293173;19;20204;-83
2023/12/19 09:47:59;;;;;;;31.93;16.47;;;8.20;99.90;;;;;;7296409;19;20287;-83
2023/12/19 09:50:27;;;;;;;30.20;15.77;;;8.20;99.90;;;;;;7294037;19;20193;-83
2023/12/19 09:52:59;;;;;;;30.50;14.63;;;8.20;99.90;;;;;;7292392;19;20222;-83
2023/12/19 09:55:31;;;;;;;32.47;15.23;;;8.20;99.90;;;;;;7299892;19;20181;-84
2023/12/19 09:57:58;;;;;;;31.50;15.90;;;8.20;99.90;;;;;;7313381;19;20210;-84
2023/12/19 10:00:26;;;;;;;32.07;15.87;;;8.10;99.90;;;;;;7312864;19;20196;-83
2023/12/19 10:02:53;;;;;;;28.03;16.03;;;8.10;99.90;;;;;;7292705;19;20659;-83
2023/12/19 10:05:19;;;;;;;31.87;14.53;;;8.20;99.90;;;;;;7294288;19;20206;-83
2023/12/19 10:07:47;;;;;;;28.87;14.97;;;8.10;99.90;;;;;;7296855;19;20183;-83
2023/12/19 10:10:13;;;;;;;30.47;15.43;;;8.20;99.90;;;;;;7296312;19;20181;-84
2023/12/19 10:12:49;;;;;;;23.47;12.90;;;8.20;99.90;;;;;;7328713;19;20210;-83
2023/12/19 10:15:15;;;;;;;26.03;13.10;;;8.20;99.90;;;;;;7203331;19;2005070;-84
2023/12/19 10:18:11;;;;;;;31.53;14.43;;;8.20;99.90;;;;;;7296838;19;20300;-86
2023/12/19 10:20:38;;;;;;;28.40;13.83;;;8.20;99.90;;;;;;7309455;19;20195;-84
2023/12/19 10:23:05;;;;;;;28.40;14.03;;;8.30;99.90;;;;;;7312019;19;20208;-84
2023/12/19 10:25:34;;;;;;;24.17;12.83;;;8.30;99.90;;;;;;7311091;19;20201;-85
2023/12/19 10:28:07;;;;;;;27.37;13.27;;;8.30;99.90;;;;;;7307255;19;20258;-83
2023/12/19 10:30:34;;;;;;;24.70;13.03;;;8.30;99.90;;;;;;7306655;19;20257;-83
2023/12/19 10:33:00;;;;;;;25.93;13.13;;;8.30;99.90;;;;;;7303035;19;20204;-83
2023/12/19 10:35:35;;;;;;;24.87;12.80;;;8.30;99.90;;;;;;7308651;19;20189;-83
2023/12/19 10:38:01;;;;;;;25.53;12.93;;;8.40;99.90;;;;;;7297814;19;20217;-83
2023/12/19 10:40:27;;;;;;;29.97;12.77;;;8.40;99.90;;;;;;7307870;19;20186;-83
2023/12/19 10:42:56;;;;;;;26.23;12.63;;;8.40;99.90;;;;;;7305777;19;20192;-83
2023/12/19 10:45:24;;;;;;;24.50;13.53;;;8.50;99.90;;;;;;7305452;19;20221;-83
2023/12/19 10:47:50;;;;;;;25.57;12.30;;;8.50;99.90;;;;;;7306459;19;20185;-81
2023/12/19 10:50:16;;;;;;;29.67;12.77;;;8.50;99.90;;;;;;7305173;19;20214;-82
2023/12/19 10:52:44;;;;;;;22.00;12.17;;;8.50;99.90;;;;;;7305772;19;20527;-81
2023/12/19 10:55:17;;;;;;;26.90;13.07;;;8.60;99.90;;;;;;7307820;19;20193;-82
2023/12/19 10:57:47;;;;;;;26.73;13.33;;;8.60;99.90;;;;;;7291106;19;20200;-82
2023/12/19 11:00:21;;;;;;;26.60;12.80;;;8.70;99.90;;;;;;7289586;19;20196;-82
2023/12/19 11:03:08;;;;;;;23.93;12.60;;;8.70;99.90;;;;;;7289507;19;20192;-82
2023/12/19 11:05:41;;;;;;;25.67;11.97;;;8.60;99.90;;;;;;7289444;19;20189;-82
2023/12/19 11:08:15;;;;;;;27.73;13.03;;;8.50;99.90;;;;;;7291969;19;20189;-83
2023/12/19 11:10:45;;;;;;;22.70;11.83;;;8.60;99.90;;;;;;7270032;19;20192;-83
2023/12/19 11:13:12;;;;;;;22.00;11.63;;;8.60;99.90;;;;;;7287926;19;20209;-83
2023/12/19 11:15:49;;;;;;;22.70;12.13;;;8.70;99.90;;;;;;7311014;19;21605;-83
2023/12/19 11:18:25;;;;;;;23.23;12.10;;;8.60;99.90;;;;;;7187044;19;2005021;-82
2023/12/19 11:21:01;;;;;;;24.30;12.73;;;8.70;99.90;;;;;;7286594;19;20200;-84
2023/12/19 11:24:02;;;;;;;27.73;13.20;;;8.80;99.90;;;;;;7287473;19;20184;-84
2023/12/19 11:27:11;;;;;;;28.13;13.03;;;8.80;99.90;;;;;;7185040;19;2004526;-83
2023/12/19 11:29:53;;;;;;;30.23;13.00;;;8.80;99.90;;;;;;7185869;19;2004800;-83
2023/12/19 11:32:28;;;;;;;25.63;13.00;;;8.80;99.90;;;;;;7186288;19;2004703;-83
2023/12/19 11:35:14;;;;;;;29.07;13.37;;;8.90;99.90;;;;;;7287908;19;20184;-82
2023/12/19 11:37:45;;;;;;;30.73;14.27;;;8.90;99.90;;;;;;7276183;19;20181;-82
2023/12/19 11:40:44;;;;;;;27.63;13.87;;;8.90;99.90;;;;;;7285318;19;20225;-82
2023/12/19 11:43:10;;;;;;;24.30;13.43;;;8.80;99.90;;;;;;7280056;19;20606;-81
2023/12/19 11:45:36;;;;;;;30.30;14.30;;;8.70;99.90;;;;;;7304798;19;20184;-82
2023/12/19 11:48:02;;;;;;;27.27;14.00;;;8.70;99.90;;;;;;7286035;19;20301;-82
2023/12/19 11:50:40;;;;;;;29.93;14.33;;;8.80;99.90;;;;;;7285431;19;20193;-83
2023/12/19 11:53:06;;;;;;;24.80;13.60;;;8.90;99.90;;;;;;7286045;19;20192;-82
2023/12/19 11:55:32;;;;;;;24.90;13.80;;;8.80;99.90;;;;;;7286900;19;20217;-83
2023/12/19 11:58:11;;;;;;;26.70;13.63;;;8.70;99.90;;;;;;7284711;19;20182;-83
2023/12/19 12:00:37;;;;;;;27.23;13.87;;;8.60;99.90;;;;;;7286985;19;20196;-82
2023/12/19 12:03:10;;;;;;;28.33;13.90;;;8.50;99.90;;;;;;7291866;19;20193;-84
2023/12/19 12:05:36;;;;;;;27.20;13.67;;;8.50;99.90;;;;;;7299671;19;20252;-83
2023/12/19 12:08:03;;;;;;;29.87;13.73;;;8.60;99.90;;;;;;7286158;19;20632;-83
2023/12/19 12:10:29;;;;;;;29.53;13.80;;;8.60;99.90;;;;;;7286245;19;20185;-83
2023/12/19 12:13:01;;;;;;;32.90;14.30;;;8.70;99.90;;;;;;7285166;19;20512;-83
2023/12/19 12:15:27;;;;;;;26.23;15.13;;;8.70;99.90;;;;;;7285337;19;20185;-81
2023/12/19 12:18:04;;;;;;;27.43;14.57;;;8.70;99.90;;;;;;7286170;19;20198;-83
2023/12/19 12:20:32;;;;;;;26.93;14.07;;;8.70;99.90;;;;;;7285814;19;20205;-83
2023/12/19 12:22:58;;;;;;;27.47;14.73;;;8.80;99.90;;;;;;7284976;19;20552;-83
2023/12/19 12:25:24;;;;;;;27.97;13.73;;;8.80;99.90;;;;;;7284326;19;20200;-83
2023/12/19 12:27:55;;;;;;;25.53;13.77;;;8.80;99.90;;;;;;7285890;19;20197;-83
2023/12/19 12:30:24;;;;;;;28.17;14.23;;;8.80;99.90;;;;;;7286171;19;20186;-83
2023/12/19 12:32:50;;;;;;;31.37;14.27;;;8.80;99.90;;;;;;7283201;19;20306;-84
2023/12/19 12:35:35;;;;;;;25.80;13.70;;;8.90;99.90;;;;;;7285217;19;20182;-84
2023/12/19 12:38:17;;;;;;;24.43;13.40;;;8.80;99.90;;;;;;7282453;19;20185;-83